createdAt,value
2018-05-19T00:00:37.107Z,10.50
2018-05-19T00:03:05.110Z,10.40
2018-05-19T00:05:33.896Z,10.30
2018-05-19T00:08:02.680Z,10.30
2018-05-19T00:10:30.678Z,10.30
2018-05-19T00:12:58.687Z,10.30
2018-05-19T00:15:26.691Z,10.30
2018-05-19T00:17:54.691Z,10.20
2018-05-19T00:20:22.709Z,10.20
2018-05-19T00:22:50.769Z,10.20
2018-05-19T00:25:18.811Z,10.10
2018-05-19T00:27:47.644Z,10.10
2018-05-19T00:30:15.681Z,10.10
2018-05-19T00:32:43.731Z,10.20
2018-05-19T00:35:11.772Z,10.20
2018-05-19T00:37:39.826Z,10.20
2018-05-19T00:40:07.916Z,10.10
2018-05-19T00:42:35.971Z,10.20
2018-05-19T00:45:04.040Z,10.10
2018-05-19T00:47:32.090Z,10.00
2018-05-19T00:50:00.902Z,9.90
2018-05-19T00:52:29.695Z,9.90
2018-05-19T00:55:03.837Z,9.90
2018-05-19T00:57:31.868Z,9.90
2018-05-19T00:59:59.927Z,9.90
2018-05-19T01:02:27.983Z,9.80
2018-05-19T01:04:56.031Z,9.70
2018-05-19T01:07:24.083Z,9.70
2018-05-19T01:09:52.131Z,9.70
2018-05-19T01:12:20.944Z,9.50
2018-05-19T01:14:48.991Z,9.50
2018-05-19T01:17:17.056Z,9.50
2018-05-19T01:19:45.207Z,9.50
2018-05-19T01:22:13.443Z,9.40
2018-05-19T01:24:41.525Z,9.30
2018-05-19T01:27:09.633Z,9.30
2018-05-19T01:29:37.631Z,9.10
2018-05-19T01:32:05.684Z,9.10
2018-05-19T01:34:33.715Z,9.00
2018-05-19T01:37:01.774Z,8.90
2018-05-19T01:39:29.967Z,8.90
2018-05-19T01:41:58.022Z,8.80
2018-05-19T01:44:26.072Z,8.80
2018-05-19T01:46:54.123Z,8.90
2018-05-19T01:49:22.210Z,8.80
2018-05-19T01:51:50.241Z,8.90
2018-05-19T01:54:18.291Z,8.80
2018-05-19T01:56:48.280Z,8.70
2018-05-19T01:59:17.100Z,8.80
2018-05-19T02:01:45.151Z,8.70
2018-05-19T02:04:13.198Z,8.60
2018-05-19T02:06:41.259Z,8.50
2018-05-19T02:09:09.302Z,8.50
2018-05-19T02:11:38.855Z,8.50
2018-05-19T02:14:06.888Z,8.50
2018-05-19T02:16:34.956Z,8.50
2018-05-19T02:19:03.033Z,8.50
2018-05-19T02:21:31.067Z,8.50
2018-05-19T02:23:59.128Z,8.50
2018-05-19T02:26:27.147Z,8.50
2018-05-19T02:28:55.968Z,8.10
2018-05-19T02:31:24.208Z,8.00
2018-05-19T02:33:52.480Z,8.00
2018-05-19T02:36:20.540Z,7.90
2018-05-19T02:38:48.559Z,8.00
2018-05-19T02:41:16.615Z,8.00
2018-05-19T02:43:44.649Z,8.00
2018-05-19T02:46:12.835Z,8.10
2018-05-19T02:48:40.870Z,8.10
2018-05-19T02:51:08.928Z,8.10
2018-05-19T02:53:37.288Z,8.10
2018-05-19T02:56:05.314Z,8.00
2018-05-19T02:58:33.367Z,7.90
2018-05-19T03:01:01.392Z,7.80
2018-05-19T03:03:29.539Z,7.90
2018-05-19T03:05:57.509Z,8.00
2018-05-19T03:08:25.588Z,8.00
2018-05-19T03:10:53.617Z,8.00
2018-05-19T03:13:21.656Z,8.00
2018-05-19T03:15:49.699Z,7.90
2018-05-19T03:18:17.764Z,7.90
2018-05-19T03:20:45.832Z,7.90
2018-05-19T03:23:13.887Z,7.90
2018-05-19T03:25:41.924Z,8.10
2018-05-19T03:28:09.985Z,8.20
2018-05-19T03:30:38.784Z,8.10
2018-05-19T03:33:06.839Z,8.00
2018-05-19T03:35:34.880Z,8.00
2018-05-19T03:38:02.931Z,8.00
2018-05-19T03:40:30.983Z,8.10
2018-05-19T03:42:59.088Z,8.10
2018-05-19T03:45:29.121Z,8.30
2018-05-19T03:47:58.156Z,8.30
2018-05-19T03:50:26.208Z,8.20
2018-05-19T03:52:54.255Z,8.30
2018-05-19T03:55:22.298Z,8.20
2018-05-19T04:00:59.155Z,8.40
2018-05-19T04:03:27.212Z,8.30
2018-05-19T04:05:55.795Z,8.40
2018-05-19T04:08:24.744Z,8.40
2018-05-19T04:10:52.783Z,8.30
2018-05-19T04:13:21.578Z,8.40
2018-05-19T04:15:50.402Z,8.50
2018-05-19T04:18:18.443Z,8.40
2018-05-19T04:20:46.499Z,8.50
2018-05-19T04:23:14.548Z,8.50
2018-05-19T04:25:43.359Z,8.70
2018-05-19T04:28:12.360Z,8.60
2018-05-19T04:30:40.399Z,8.70
2018-05-19T04:33:08.607Z,8.70
2018-05-19T04:35:37.419Z,8.70
2018-05-19T04:38:07.407Z,8.80
2018-05-19T04:40:35.423Z,8.70
2018-05-19T04:43:04.239Z,8.80
2018-05-19T04:45:33.059Z,9.00
2018-05-19T04:48:01.095Z,8.90
2018-05-19T04:50:29.281Z,9.00
2018-05-19T04:52:57.598Z,8.90
2018-05-19T04:55:26.412Z,9.00
2018-05-19T04:57:54.467Z,8.90
2018-05-19T05:00:23.259Z,9.10
2018-05-19T05:02:51.460Z,9.10
2018-05-19T05:05:20.266Z,9.00
2018-05-19T05:07:49.080Z,9.20
2018-05-19T05:10:17.132Z,9.10
2018-05-19T05:12:45.180Z,9.20
2018-05-19T05:15:13.227Z,9.20
2018-05-19T05:17:42.035Z,9.50
2018-05-19T05:20:10.088Z,9.40
2018-05-19T05:22:38.141Z,9.50
2018-05-19T05:25:06.188Z,9.70
2018-05-19T05:27:34.251Z,9.70
2018-05-19T05:30:03.058Z,9.90
2018-05-19T05:32:31.889Z,10.10
2018-05-19T05:34:59.995Z,10.00
2018-05-19T05:37:28.762Z,10.40
2018-05-19T05:39:56.828Z,10.30
2018-05-19T05:42:25.627Z,10.60
2018-05-19T05:44:53.715Z,10.60
2018-05-19T05:47:21.767Z,10.60
2018-05-19T05:49:49.804Z,10.60
2018-05-19T05:52:17.861Z,10.60
2018-05-19T05:54:45.899Z,10.60
2018-05-19T05:57:13.961Z,10.80
2018-05-19T05:59:42.054Z,10.90
2018-05-19T06:02:10.091Z,11.00
2018-05-19T06:04:38.128Z,11.20
2018-05-19T06:07:06.215Z,11.30
2018-05-19T06:09:34.371Z,11.50
2018-05-19T06:12:02.430Z,11.60
2018-05-19T06:14:30.476Z,11.70
2018-05-19T06:16:58.537Z,11.70
2018-05-19T06:19:26.600Z,11.70
2018-05-19T06:21:55.408Z,11.90
2018-05-19T06:24:23.463Z,11.80
2018-05-19T06:26:51.512Z,11.90
2018-05-19T06:29:19.584Z,12.10
2018-05-19T06:31:47.927Z,12.00
2018-05-19T06:34:15.972Z,12.00
2018-05-19T06:36:44.076Z,11.90
2018-05-19T06:39:12.135Z,12.10
2018-05-19T06:41:40.223Z,12.30
2018-05-19T06:44:08.292Z,12.40
2018-05-19T06:46:36.345Z,12.40
2018-05-19T06:49:05.164Z,12.40
2018-05-19T06:51:34.084Z,12.50
2018-05-19T06:54:02.148Z,12.50
2018-05-19T06:56:30.211Z,12.60
2018-05-19T06:58:59.083Z,12.80
2018-05-19T07:01:27.152Z,12.70
2018-05-19T07:03:55.203Z,13.90
2018-05-19T07:06:23.290Z,13.10
2018-05-19T07:08:51.324Z,13.00
2018-05-19T07:11:19.399Z,12.90
2018-05-19T07:13:47.471Z,13.10
2018-05-19T07:16:16.519Z,13.00
2018-05-19T07:18:44.580Z,13.10
2018-05-19T07:21:12.628Z,13.30
2018-05-19T07:23:40.828Z,13.40
2018-05-19T07:26:08.931Z,13.40
2018-05-19T07:28:37.003Z,13.70
2018-05-19T07:31:05.065Z,13.90
2018-05-19T07:33:33.128Z,14.10
2018-05-19T07:36:01.316Z,14.20
2018-05-19T07:38:29.299Z,14.10
2018-05-19T07:40:58.126Z,14.10
2018-05-19T07:43:26.181Z,14.10
2018-05-19T07:45:55.321Z,14.00
2018-05-19T07:48:23.374Z,14.00
2018-05-19T07:50:52.205Z,14.60
2018-05-19T07:53:20.259Z,14.50
2018-05-19T07:55:49.108Z,14.70
2018-05-19T07:58:17.176Z,14.60
2018-05-19T08:00:45.223Z,14.70
2018-05-19T08:03:14.055Z,15.30
2018-05-19T08:05:42.110Z,15.20
2018-05-19T08:08:10.170Z,15.20
2018-05-19T08:10:38.233Z,15.20
2018-05-19T08:13:06.281Z,15.50
2018-05-19T08:15:35.120Z,15.70
2018-05-19T08:18:03.176Z,15.60
2018-05-19T08:20:31.246Z,15.90
2018-05-19T08:23:00.060Z,16.20
2018-05-19T08:25:28.131Z,16.20
2018-05-19T08:27:56.962Z,16.30
2018-05-19T08:30:25.103Z,16.20
2018-05-19T08:32:53.143Z,16.40
2018-05-19T08:35:21.190Z,16.30
2018-05-19T08:37:49.260Z,16.60
2018-05-19T08:40:18.080Z,16.90
2018-05-19T08:42:46.164Z,16.80
2018-05-19T08:45:14.265Z,16.80
2018-05-19T08:47:42.459Z,16.80
2018-05-19T08:50:10.575Z,16.90
2018-05-19T08:52:38.631Z,16.90
2018-05-19T08:55:06.698Z,16.80
2018-05-19T08:57:34.748Z,16.90
2018-05-19T09:00:03.592Z,16.90
2018-05-19T09:02:31.708Z,16.90
2018-05-19T09:04:59.761Z,17.00
2018-05-19T09:07:28.847Z,17.10
2018-05-19T09:09:57.672Z,17.00
2018-05-19T09:12:25.760Z,17.00
2018-05-19T09:14:53.817Z,17.00
2018-05-19T09:17:22.632Z,16.80
2018-05-19T09:19:50.696Z,16.80
2018-05-19T09:22:19.519Z,17.20
2018-05-19T09:24:47.594Z,17.10
2018-05-19T09:27:15.724Z,17.20
2018-05-19T09:29:45.055Z,17.30
2018-05-19T09:32:13.261Z,17.60
2018-05-19T09:34:42.316Z,18.00
2018-05-19T09:37:10.409Z,17.90
2018-05-19T09:39:38.462Z,18.10
2018-05-19T09:42:06.531Z,18.30
2018-05-19T09:44:35.363Z,18.60
2018-05-19T09:47:03.428Z,18.50
2018-05-19T09:49:31.504Z,18.30
2018-05-19T09:52:00.353Z,18.50
2018-05-19T09:54:28.413Z,18.40
2018-05-19T09:56:56.483Z,18.90
2018-05-19T09:59:24.605Z,19.20
2018-05-19T10:01:52.623Z,19.40
2018-05-19T10:04:20.700Z,19.30
2018-05-19T10:06:48.759Z,19.20
2018-05-19T10:09:16.895Z,19.20
2018-05-19T10:11:45.709Z,19.50
2018-05-19T10:14:13.812Z,19.50
2018-05-19T10:16:41.861Z,19.90
2018-05-19T10:19:10.730Z,19.70
2018-05-19T10:21:38.860Z,19.70
2018-05-19T10:24:07.672Z,19.90
2018-05-19T10:26:35.760Z,19.90
2018-05-19T10:29:03.852Z,20.00
2018-05-19T10:31:31.944Z,20.20
2018-05-19T10:34:00.012Z,20.00
2018-05-19T10:36:28.080Z,19.50
2018-05-19T10:38:56.904Z,19.70
2018-05-19T10:41:25.907Z,19.60
2018-05-19T10:43:53.993Z,20.00
2018-05-19T10:46:22.059Z,20.30
2018-05-19T10:48:50.891Z,20.40
2018-05-19T10:51:18.945Z,20.40
2018-05-19T10:53:47.776Z,20.40
2018-05-19T10:56:15.832Z,20.30
2018-05-19T10:58:44.033Z,20.30
2018-05-19T11:01:12.100Z,20.50
2018-05-19T11:03:41.052Z,20.80
2018-05-19T11:06:09.145Z,20.80
2018-05-19T11:08:37.224Z,21.20
2018-05-19T11:11:05.282Z,21.40
2018-05-19T11:13:33.355Z,21.60
2018-05-19T11:16:01.453Z,21.50
2018-05-19T11:18:29.613Z,21.70
2018-05-19T11:20:57.601Z,21.70
2018-05-19T11:23:25.672Z,21.70
2018-05-19T11:25:53.754Z,21.90
2018-05-19T11:28:22.582Z,21.50
2018-05-19T11:30:51.584Z,21.50
2018-05-19T11:33:19.652Z,21.60
2018-05-19T11:35:48.477Z,22.10
2018-05-19T11:38:16.556Z,22.10
2018-05-19T11:40:44.612Z,22.20
2018-05-19T11:43:12.744Z,22.20
2018-05-19T11:45:40.794Z,22.00
2018-05-19T11:48:08.872Z,22.10
2018-05-19T11:50:37.779Z,21.90
2018-05-19T11:53:06.183Z,21.80
2018-05-19T11:55:34.272Z,22.00
2018-05-19T11:58:02.336Z,22.50
2018-05-19T12:00:31.162Z,22.80
2018-05-19T12:02:59.227Z,22.70
2018-05-19T12:05:28.063Z,22.40
2018-05-19T12:07:56.113Z,22.40
2018-05-19T12:10:25.110Z,22.60
2018-05-19T12:12:53.348Z,22.60
2018-05-19T12:15:21.409Z,22.50
2018-05-19T12:17:49.775Z,22.60
2018-05-19T12:20:18.596Z,22.60
2018-05-19T12:22:47.472Z,22.50
2018-05-19T12:25:15.488Z,22.40
2018-05-19T12:27:43.612Z,22.50
2018-05-19T12:30:11.695Z,22.80
2018-05-19T12:32:39.780Z,23.30
2018-05-19T12:35:07.819Z,23.70
2018-05-19T12:37:36.639Z,23.80
2018-05-19T12:40:04.701Z,23.80
2018-05-19T12:42:32.748Z,23.90
2018-05-19T12:45:00.812Z,23.80
2018-05-19T12:47:28.851Z,24.00
2018-05-19T12:49:57.707Z,24.00
2018-05-19T12:52:25.770Z,24.00
2018-05-19T12:54:53.829Z,24.10
2018-05-19T12:57:22.639Z,24.60
2018-05-19T12:59:50.703Z,24.50
2018-05-19T13:02:18.743Z,24.60
2018-05-19T13:04:46.804Z,24.70
2018-05-19T13:07:14.867Z,25.00
2018-05-19T13:09:43.691Z,25.00
2018-05-19T13:12:11.866Z,24.90
2018-05-19T13:14:39.984Z,25.20
2018-05-19T13:17:08.077Z,25.40
2018-05-19T13:19:36.121Z,25.40
2018-05-19T13:22:04.944Z,25.30
2018-05-19T13:24:33.752Z,24.90
2018-05-19T13:27:01.813Z,24.80
2018-05-19T13:29:29.881Z,24.70
2018-05-19T13:31:58.809Z,24.80
2018-05-19T13:34:26.871Z,24.80
2018-05-19T13:36:56.731Z,25.50
2018-05-19T13:39:24.773Z,25.40
2018-05-19T13:41:53.665Z,25.60
2018-05-19T13:44:21.736Z,25.50
2018-05-19T13:46:49.857Z,25.30
2018-05-19T13:49:17.848Z,25.20
2018-05-19T13:51:45.884Z,25.30
2018-05-19T13:54:13.949Z,25.50
2018-05-19T13:56:42.025Z,25.60
2018-05-19T13:59:10.491Z,25.50
2018-05-19T14:01:38.703Z,25.20
2018-05-19T14:04:07.793Z,25.40
2018-05-19T14:06:35.930Z,25.80
2018-05-19T14:09:03.975Z,26.10
2018-05-19T14:11:32.047Z,25.60
2018-05-19T14:14:00.120Z,25.10
2018-05-19T14:16:28.948Z,25.40
2018-05-19T14:18:56.984Z,25.40
2018-05-19T14:21:25.058Z,25.50
2018-05-19T14:23:53.109Z,25.30
2018-05-19T14:26:21.163Z,25.20
2018-05-19T14:28:49.211Z,25.50
2018-05-19T14:31:17.275Z,25.80
2018-05-19T14:33:45.379Z,25.90
2018-05-19T14:36:13.455Z,26.20
2018-05-19T14:38:41.536Z,26.30
2018-05-19T14:41:09.587Z,26.80
2018-05-19T14:43:37.660Z,26.70
2018-05-19T14:46:05.726Z,26.60
2018-05-19T14:48:34.537Z,27.00
2018-05-19T14:51:03.358Z,27.40
2018-05-19T14:53:31.391Z,27.40
2018-05-19T14:55:59.927Z,27.20
2018-05-19T14:58:28.002Z,26.80
2018-05-19T15:00:56.816Z,27.40
2018-05-19T15:03:24.883Z,27.40
2018-05-19T15:05:53.711Z,26.50
2018-05-19T15:08:21.767Z,26.40
2018-05-19T15:10:50.803Z,24.50
2018-05-19T15:13:18.857Z,24.40
2018-05-19T15:15:47.668Z,22.90
2018-05-19T15:18:15.735Z,22.80
2018-05-19T15:20:44.544Z,22.00
2018-05-19T15:23:13.428Z,21.50
2018-05-19T15:25:41.479Z,21.40
2018-05-19T15:28:09.564Z,21.30
2018-05-19T15:30:37.744Z,21.20
2018-05-19T15:33:05.901Z,20.90
2018-05-19T15:35:33.917Z,20.70
2018-05-19T15:38:01.957Z,20.60
2018-05-19T15:40:30.043Z,20.50
2018-05-19T15:42:58.844Z,20.40
2018-05-19T15:45:26.943Z,20.30
2018-05-19T15:47:55.008Z,20.20
2018-05-19T15:50:23.935Z,20.00
2018-05-19T15:52:52.430Z,20.00
2018-05-19T15:55:20.617Z,20.00
2018-05-19T15:57:50.135Z,20.20
2018-05-19T16:00:18.176Z,20.20
2018-05-19T16:02:46.248Z,20.30
2018-05-19T16:05:14.516Z,20.30
2018-05-19T16:07:42.607Z,20.30
2018-05-19T16:10:10.655Z,20.30
2018-05-19T16:12:38.712Z,20.40
2018-05-19T16:15:07.569Z,20.60
2018-05-19T16:17:35.641Z,20.50
2018-05-19T16:20:03.692Z,20.60
2018-05-19T16:22:32.560Z,20.40
2018-05-19T16:25:00.635Z,20.40
2018-05-19T16:27:29.596Z,20.30
2018-05-19T16:29:57.656Z,20.30
2018-05-19T16:32:26.152Z,20.20
2018-05-19T16:34:54.975Z,20.20
2018-05-19T16:37:23.032Z,20.20
2018-05-19T16:39:51.863Z,20.20
2018-05-19T16:42:19.990Z,20.20
2018-05-19T16:44:48.875Z,20.10
2018-05-19T16:47:16.941Z,20.10
2018-05-19T16:49:45.045Z,20.30
2018-05-19T16:52:13.116Z,20.40
2018-05-19T16:54:41.167Z,20.40
2018-05-19T16:57:10.049Z,20.60
2018-05-19T16:59:38.140Z,20.50
2018-05-19T17:02:06.976Z,20.50
2018-05-19T17:04:35.798Z,20.40
2018-05-19T17:07:03.847Z,20.30
2018-05-19T17:09:32.680Z,19.90
2018-05-19T17:12:00.761Z,19.80
2018-05-19T17:14:28.828Z,19.70
2018-05-19T17:16:56.871Z,19.70
2018-05-19T17:19:24.956Z,19.60
2018-05-19T17:21:54.093Z,19.40
2018-05-19T17:24:22.082Z,19.40
2018-05-19T17:26:50.909Z,19.10
2018-05-19T17:29:18.982Z,19.10
2018-05-19T17:31:47.804Z,18.90
2018-05-19T17:34:15.855Z,18.90
2018-05-19T17:36:43.937Z,18.90
2018-05-19T17:39:12.751Z,18.60
2018-05-19T17:41:41.591Z,18.60
2018-05-19T17:44:09.622Z,18.50
2018-05-19T17:46:38.450Z,18.50
2018-05-19T17:49:06.511Z,18.40
2018-05-19T17:51:35.325Z,18.20
2018-05-19T17:54:04.141Z,18.20
2018-05-19T17:56:32.178Z,18.10
2018-05-19T17:59:01.011Z,18.00
2018-05-19T18:01:29.051Z,18.00
2018-05-19T18:03:57.120Z,18.00
2018-05-19T18:06:25.617Z,17.90
2018-05-19T18:08:53.652Z,17.90
2018-05-19T18:11:22.472Z,17.80
2018-05-19T18:13:50.507Z,17.70
2018-05-19T18:16:18.570Z,17.70
2018-05-19T18:18:46.663Z,17.80
2018-05-19T18:21:14.691Z,17.70
2018-05-19T18:23:43.507Z,17.70
2018-05-19T18:26:11.550Z,17.60
2018-05-19T18:28:39.598Z,17.70
2018-05-19T18:31:07.660Z,17.80
2018-05-19T18:33:35.729Z,17.70
2018-05-19T18:36:03.788Z,17.70
2018-05-19T18:38:31.850Z,17.60
2018-05-19T18:40:59.890Z,17.50
2018-05-19T18:43:27.948Z,17.50
2018-05-19T18:45:56.755Z,17.40
2018-05-19T18:48:25.584Z,17.50
2018-05-19T18:50:53.615Z,17.50
2018-05-19T18:53:21.680Z,17.60
2018-05-19T18:55:49.726Z,17.60
2018-05-19T18:58:17.778Z,17.60
2018-05-19T19:00:45.843Z,17.50
2018-05-19T19:03:13.883Z,17.50
2018-05-19T19:05:41.996Z,17.60
2018-05-19T19:08:10.031Z,17.50
2018-05-19T19:10:38.852Z,17.40
2018-05-19T19:13:06.898Z,17.30
2018-05-19T19:15:34.957Z,17.40
2018-05-19T19:18:02.990Z,17.30
2018-05-19T19:20:31.818Z,17.20
2018-05-19T19:22:59.872Z,17.20
2018-05-19T19:25:28.675Z,17.30
2018-05-19T19:27:57.612Z,17.20
2018-05-19T19:30:25.647Z,17.20
2018-05-19T19:32:53.704Z,17.20
2018-05-19T19:35:21.743Z,17.20
2018-05-19T19:37:49.846Z,17.00
2018-05-19T19:40:17.906Z,17.00
2018-05-19T19:42:46.772Z,17.00
2018-05-19T19:45:14.771Z,16.90
2018-05-19T19:47:43.581Z,17.00
2018-05-19T19:50:12.396Z,17.00
2018-05-19T19:52:40.464Z,16.90
2018-05-19T19:55:09.312Z,17.00
2018-05-19T19:57:37.377Z,16.90
2018-05-19T20:00:05.407Z,16.90
2018-05-19T20:02:34.068Z,16.90
2018-05-19T20:05:02.100Z,16.80
2018-05-19T20:07:30.155Z,16.80
2018-05-19T20:09:59.204Z,16.80
2018-05-19T20:12:27.263Z,16.80
2018-05-19T20:14:55.310Z,16.90
2018-05-19T20:17:23.375Z,16.90
2018-05-19T20:19:52.191Z,16.80
2018-05-19T20:22:20.694Z,16.80
2018-05-19T20:24:48.743Z,16.80
2018-05-19T20:27:17.552Z,16.60
2018-05-19T20:29:46.379Z,16.70
2018-05-19T20:32:14.416Z,16.60
2018-05-19T20:34:42.477Z,16.70
2018-05-19T20:37:10.532Z,16.70
2018-05-19T20:39:38.592Z,16.70
2018-05-19T20:42:07.420Z,16.70
2018-05-19T20:44:35.447Z,16.70
2018-05-19T20:47:03.525Z,16.80
2018-05-19T20:49:31.581Z,16.80
2018-05-19T20:51:59.699Z,16.80
2018-05-19T20:54:27.697Z,16.70
2018-05-19T20:56:56.520Z,16.60
2018-05-19T20:59:25.340Z,16.60
2018-05-19T21:01:53.700Z,16.50
2018-05-19T21:04:21.760Z,16.50
2018-05-19T21:06:49.804Z,16.40
2018-05-19T21:09:17.863Z,16.40
2018-05-19T21:11:46.686Z,16.50
2018-05-19T21:14:14.768Z,16.40
2018-05-19T21:16:42.799Z,16.50
2018-05-19T21:19:13.424Z,16.40
2018-05-19T21:21:41.459Z,16.40
2018-05-19T21:24:10.298Z,16.20
2018-05-19T21:26:38.345Z,16.10
2018-05-19T21:29:07.276Z,16.20
2018-05-19T21:31:35.363Z,16.10
2018-05-19T21:34:03.401Z,16.10
2018-05-19T21:36:32.239Z,16.10
2018-05-19T21:39:00.291Z,16.00
2018-05-19T21:41:29.111Z,16.00
2018-05-19T21:43:57.147Z,16.00
2018-05-19T21:46:25.207Z,15.90
2018-05-19T21:48:53.260Z,15.90
2018-05-19T21:51:22.540Z,15.80
2018-05-19T21:53:50.603Z,15.70
2018-05-19T21:56:18.638Z,15.70
2018-05-19T21:58:47.476Z,15.80
2018-05-19T22:01:15.508Z,15.70
2018-05-19T22:03:44.340Z,15.50
2018-05-19T22:06:12.460Z,15.50
2018-05-19T22:08:40.515Z,15.60
2018-05-19T22:11:08.579Z,15.60
2018-05-19T22:13:36.939Z,15.60
2018-05-19T22:16:05.008Z,15.50
2018-05-19T22:18:33.046Z,15.50
2018-05-19T22:21:01.107Z,15.40
2018-05-19T22:23:29.903Z,15.40
2018-05-19T22:25:58.731Z,15.40
2018-05-19T22:28:26.860Z,15.30
2018-05-19T22:30:54.915Z,15.40
2018-05-19T22:33:22.972Z,15.40
2018-05-19T22:35:51.775Z,15.40
2018-05-19T22:38:20.596Z,15.40
2018-05-19T22:40:48.634Z,15.40
2018-05-19T22:43:16.691Z,15.50
2018-05-19T22:45:44.750Z,15.40
2018-05-19T22:48:12.980Z,15.40
2018-05-19T22:50:41.128Z,15.40
2018-05-19T22:53:09.231Z,15.40
2018-05-19T22:55:37.256Z,15.40
2018-05-19T22:58:05.321Z,15.30
2018-05-19T23:00:33.363Z,15.30
2018-05-19T23:03:01.412Z,15.20
2018-05-19T23:05:31.248Z,15.20
2018-05-19T23:08:00.182Z,15.20
2018-05-19T23:10:28.240Z,15.10
2018-05-19T23:12:57.040Z,15.30
2018-05-19T23:15:25.905Z,15.30
2018-05-19T23:17:53.940Z,15.20
2018-05-19T23:20:23.004Z,15.20
2018-05-19T23:22:53.979Z,15.20
2018-05-19T23:25:22.800Z,15.10
2018-05-19T23:27:50.855Z,15.00
2018-05-19T23:30:18.924Z,15.00
2018-05-19T23:32:46.975Z,15.00
2018-05-19T23:35:15.013Z,15.00
2018-05-19T23:37:43.845Z,15.00
2018-05-19T23:40:11.883Z,14.90
2018-05-19T23:42:40.721Z,15.00
2018-05-19T23:45:08.757Z,14.90
2018-05-19T23:47:36.823Z,14.90
2018-05-19T23:50:04.874Z,14.90
2018-05-19T23:52:32.920Z,14.80
2018-05-19T23:55:01.751Z,14.90
2018-05-19T23:57:30.555Z,14.80
2018-05-19T23:59:58.612Z,14.80
